Time,TemperatureF,DewpointF,PressureIn,WindDirection,WindDirectionDegrees,WindSpeedMPH,WindSpeedGustMPH,Humidity,HourlyPrecipIn,Conditions,Clouds,dailyrainin,SoftwareType,DateUTC
2013-02-23 00:00:00,68.5,66.7,30.01,SSE,165,0.0,0.0,94,0.00,,---,0.01,VWS V14.00,2013-02-23 05:00:00,
2013-02-23 00:05:00,68.4,66.6,30.01,SSE,165,0.0,0.0,94,0.00,,---,0.00,VWS V14.00,2013-02-23 05:05:00,
2013-02-23 00:10:00,68.4,66.6,30.01,SSE,165,0.0,2.0,94,0.00,,---,0.00,VWS V14.00,2013-02-23 05:10:00,
2013-02-23 00:15:00,68.5,66.7,30.01,SSE,159,4.0,5.0,94,0.00,,---,0.00,VWS V14.00,2013-02-23 05:15:00,
2013-02-23 00:20:00,68.6,66.8,30.01,SSE,159,0.0,0.0,94,0.00,,---,0.00,VWS V14.00,2013-02-23 05:20:00,
2013-02-23 00:25:00,68.5,66.7,30.00,SSE,159,0.0,0.0,94,0.00,,---,0.00,VWS V14.00,2013-02-23 05:25:00,
2013-02-23 00:30:00,68.5,66.7,30.00,SSE,155,0.0,4.0,94,0.00,,---,0.00,VWS V14.00,2013-02-23 05:30:00,
2013-02-23 00:35:00,68.5,66.7,30.00,SSE,153,0.0,0.0,94,0.00,,---,0.00,VWS V14.00,2013-02-23 05:35:00,
2013-02-23 00:40:00,68.4,66.6,30.00,SSE,153,0.0,0.0,94,0.00,,---,0.00,VWS V14.00,2013-02-23 05:40:00,
2013-02-23 00:45:00,68.3,66.5,30.00,SSE,153,0.0,0.0,94,0.00,,---,0.00,VWS V14.00,2013-02-23 05:45:00,
2013-02-23 00:50:00,68.2,66.4,30.00,SSE,153,0.0,0.0,94,0.00,,---,0.00,VWS V14.00,2013-02-23 05:50:00,
2013-02-23 00:55:00,68.1,66.3,30.00,SSE,153,0.0,0.0,94,0.00,,---,0.00,VWS V14.00,2013-02-23 05:55:00,
2013-02-23 01:00:00,68.0,66.2,30.00,SSE,153,0.0,0.0,94,0.00,,---,0.00,VWS V14.00,2013-02-23 06:00:00,
2013-02-23 01:05:00,67.8,66.0,29.99,SSE,153,0.0,0.0,94,0.00,,---,0.00,VWS V14.00,2013-02-23 06:05:00,
2013-02-23 01:10:00,67.7,65.9,29.99,SSE,153,0.0,0.0,94,0.00,,---,0.00,VWS V14.00,2013-02-23 06:10:00,
2013-02-23 01:15:00,67.6,66.1,29.99,SSE,153,0.0,0.0,95,0.00,,---,0.00,VWS V14.00,2013-02-23 06:15:00,
2013-02-23 01:20:00,67.5,65.7,29.99,SSE,153,0.0,0.0,94,0.00,,---,0.00,VWS V14.00,2013-02-23 06:20:00,
2013-02-23 01:25:00,67.4,65.6,29.99,SSE,153,0.0,0.0,94,0.00,,---,0.00,VWS V14.00,2013-02-23 06:25:00,
2013-02-23 01:30:00,67.2,65.4,29.99,SSE,153,0.0,0.0,94,0.00,,---,0.00,VWS V14.00,2013-02-23 06:30:00,
2013-02-23 01:35:00,67.1,65.6,29.98,SSE,153,0.0,0.0,95,0.00,,---,0.00,VWS V14.00,2013-02-23 06:35:00,
2013-02-23 01:40:00,67.0,65.5,29.98,SSE,153,0.0,0.0,95,0.00,,---,0.00,VWS V14.00,2013-02-23 06:40:00,
2013-02-23 01:45:00,66.9,65.4,29.98,SSE,153,0.0,0.0,95,0.00,,---,0.00,VWS V14.00,2013-02-23 06:45:00,
2013-02-23 01:50:00,66.8,65.3,29.98,SSE,153,0.0,0.0,95,0.00,,---,0.00,VWS V14.00,2013-02-23 06:50:00,
2013-02-23 01:55:00,66.8,65.3,29.99,SSE,153,0.0,0.0,95,0.00,,---,0.00,VWS V14.00,2013-02-23 06:55:00,
2013-02-23 02:00:00,66.7,65.2,29.98,SSE,153,0.0,0.0,95,0.00,,---,0.00,VWS V14.00,2013-02-23 07:00:00,
2013-02-23 02:05:00,66.6,65.1,29.98,SSE,153,0.0,0.0,95,0.00,,---,0.00,VWS V14.00,2013-02-23 07:05:00,
2013-02-23 02:10:00,66.5,65.0,29.98,SSE,153,0.0,0.0,95,0.00,,---,0.00,VWS V14.00,2013-02-23 07:10:00,
2013-02-23 02:15:00,66.5,65.3,29.98,SSE,153,0.0,0.0,96,0.00,,---,0.00,VWS V14.00,2013-02-23 07:15:00,
2013-02-23 02:20:00,66.6,65.4,29.97,SSE,153,0.0,0.0,96,0.00,,---,0.00,VWS V14.00,2013-02-23 07:20:00,
2013-02-23 02:25:00,66.9,66.0,29.97,SSE,153,0.0,0.0,97,0.00,,---,0.00,VWS V14.00,2013-02-23 07:25:00,
2013-02-23 02:30:00,67.0,66.1,29.97,SSE,153,0.0,0.0,97,0.00,,---,0.00,VWS V14.00,2013-02-23 07:30:00,
2013-02-23 02:35:00,67.2,66.3,29.97,SSE,153,0.0,0.0,97,0.00,,---,0.00,VWS V14.00,2013-02-23 07:35:00,
2013-02-23 02:40:00,67.4,66.5,29.97,SSE,155,4.0,5.0,97,0.00,,---,0.00,VWS V14.00,2013-02-23 07:40:00,
2013-02-23 02:45:00,67.4,66.5,29.96,SSE,152,0.0,5.0,97,0.00,,---,0.00,VWS V14.00,2013-02-23 07:45:00,
2013-02-23 02:50:00,67.6,66.7,29.96,SSE,150,1.0,5.0,97,0.00,,---,0.00,VWS V14.00,2013-02-23 07:50:00,
2013-02-23 02:55:00,67.6,66.7,29.96,SSE,148,0.0,5.0,97,0.00,,---,0.00,VWS V14.00,2013-02-23 07:55:00,
2013-02-23 03:00:00,67.7,66.8,29.97,SSE,148,0.0,4.0,97,0.00,,---,0.00,VWS V14.00,2013-02-23 08:00:00,
2013-02-23 03:05:00,67.8,66.9,29.96,SE,144,0.0,6.0,97,0.00,,---,0.00,VWS V14.00,2013-02-23 08:05:00,
2013-02-23 03:10:00,68.0,67.1,29.96,SE,134,0.0,6.0,97,0.00,,---,0.00,VWS V14.00,2013-02-23 08:10:00,
2013-02-23 03:15:00,68.1,67.2,29.96,ESE,120,4.0,7.0,97,0.00,,---,0.00,VWS V14.00,2013-02-23 08:15:00,
2013-02-23 03:20:00,68.2,67.3,29.96,SE,130,0.0,3.0,97,0.00,,---,0.00,VWS V14.00,2013-02-23 08:20:00,
2013-02-23 03:25:00,68.4,67.5,29.96,SE,146,5.0,5.0,97,0.00,,---,0.00,VWS V14.00,2013-02-23 08:25:00,
2013-02-23 03:30:00,68.6,67.7,29.96,SSE,148,0.0,4.0,97,0.00,,---,0.00,VWS V14.00,2013-02-23 08:30:00,
2013-02-23 03:35:00,68.9,68.0,29.96,SSE,149,5.0,11.0,97,0.00,,---,0.00,VWS V14.00,2013-02-23 08:35:00,
2013-02-23 03:40:00,69.2,68.6,29.96,South,179,5.0,9.0,98,0.00,,---,0.00,VWS V14.00,2013-02-23 08:40:00,
2013-02-23 03:45:00,69.3,68.7,29.96,South,169,0.0,0.0,98,0.00,,---,0.00,VWS V14.00,2013-02-23 08:45:00,
2013-02-23 03:50:00,69.5,68.6,29.96,SSE,148,0.0,9.0,97,0.00,,---,0.00,VWS V14.00,2013-02-23 08:50:00,
2013-02-23 03:55:00,69.6,68.7,29.96,SE,139,8.0,10.0,97,0.00,,---,0.00,VWS V14.00,2013-02-23 08:55:00,
2013-02-23 04:00:00,69.7,68.8,29.96,SSE,154,9.0,9.0,97,0.00,,---,0.00,VWS V14.00,2013-02-23 09:00:00,
2013-02-23 04:05:00,69.8,68.9,29.96,SE,140,0.0,2.0,97,0.00,,---,0.00,VWS V14.00,2013-02-23 09:05:00,
2013-02-23 04:10:00,69.8,68.9,29.96,SE,142,0.0,0.0,97,0.00,,---,0.00,VWS V14.00,2013-02-23 09:10:00,
2013-02-23 04:15:00,69.8,68.6,29.96,SSE,153,3.0,6.0,96,0.00,,---,0.00,VWS V14.00,2013-02-23 09:15:00,
2013-02-23 04:20:00,69.8,68.6,29.96,SE,144,0.0,10.0,96,0.00,,---,0.00,VWS V14.00,2013-02-23 09:20:00,
2013-02-23 04:25:00,69.7,68.5,29.95,SSE,158,3.0,6.0,96,0.00,,---,0.00,VWS V14.00,2013-02-23 09:25:00,
2013-02-23 04:30:00,69.7,68.5,29.95,SSE,156,0.0,4.0,96,0.00,,---,0.00,VWS V14.00,2013-02-23 09:30:00,
2013-02-23 04:35:00,69.6,68.4,29.95,SSE,156,0.0,0.0,96,0.00,,---,0.00,VWS V14.00,2013-02-23 09:35:00,
2013-02-23 04:40:00,69.5,68.0,29.96,SSE,155,0.0,0.0,95,0.00,,---,0.00,VWS V14.00,2013-02-23 09:40:00,
2013-02-23 04:45:00,69.4,68.2,29.95,SSE,156,0.0,0.0,96,0.00,,---,0.00,VWS V14.00,2013-02-23 09:45:00,
2013-02-23 04:50:00,69.4,68.2,29.96,SSE,156,0.0,0.0,96,0.00,,---,0.00,VWS V14.00,2013-02-23 09:50:00,
2013-02-23 04:55:00,69.3,68.1,29.96,SSE,156,0.0,0.0,96,0.00,,---,0.00,VWS V14.00,2013-02-23 09:55:00,
2013-02-23 05:00:00,69.2,68.0,29.96,SSE,156,0.0,0.0,96,0.00,,---,0.00,VWS V14.00,2013-02-23 10:00:00,
2013-02-23 05:05:00,69.0,67.8,29.96,SSE,156,0.0,0.0,96,0.00,,---,0.00,VWS V14.00,2013-02-23 10:05:00,
2013-02-23 05:10:00,68.9,67.7,29.96,SSE,155,0.0,0.0,96,0.00,,---,0.00,VWS V14.00,2013-02-23 10:10:00,
2013-02-23 05:15:00,68.9,67.7,29.96,SSE,155,0.0,0.0,96,0.00,,---,0.00,VWS V14.00,2013-02-23 10:15:00,
2013-02-23 05:20:00,68.8,67.6,29.96,SSE,155,0.0,0.0,96,0.00,,---,0.00,VWS V14.00,2013-02-23 10:20:00,
2013-02-23 05:25:00,68.7,67.5,29.96,SSE,155,0.0,0.0,96,0.00,,---,0.00,VWS V14.00,2013-02-23 10:25:00,
2013-02-23 05:30:00,68.6,67.4,29.96,SSE,155,0.0,0.0,96,0.00,,---,0.00,VWS V14.00,2013-02-23 10:30:00,
2013-02-23 05:35:00,68.4,67.2,29.96,SSE,155,0.0,0.0,96,0.00,,---,0.00,VWS V14.00,2013-02-23 10:35:00,
2013-02-23 05:40:00,68.3,67.1,29.96,SSE,155,0.0,0.0,96,0.00,,---,0.00,VWS V14.00,2013-02-23 10:40:00,
2013-02-23 05:45:00,68.3,67.1,29.96,SSE,155,0.0,0.0,96,0.00,,---,0.00,VWS V14.00,2013-02-23 10:45:00,
2013-02-23 05:50:00,68.1,66.9,29.96,SSE,155,0.0,0.0,96,0.00,,---,0.00,VWS V14.00,2013-02-23 10:50:00,
2013-02-23 05:55:00,68.0,66.8,29.96,SSE,155,0.0,0.0,96,0.00,,---,0.00,VWS V14.00,2013-02-23 10:55:00,
2013-02-23 06:00:00,67.9,66.7,29.97,SSE,155,0.0,0.0,96,0.00,,---,0.00,VWS V14.00,2013-02-23 11:00:00,
2013-02-23 06:05:00,67.8,66.6,29.96,SSE,155,0.0,0.0,96,0.00,,---,0.00,VWS V14.00,2013-02-23 11:05:00,
2013-02-23 06:10:00,67.7,66.5,29.96,SSE,155,0.0,0.0,96,0.00,,---,0.00,VWS V14.00,2013-02-23 11:10:00,
2013-02-23 06:15:00,67.8,66.9,29.96,SSE,155,0.0,0.0,97,0.00,,---,0.00,VWS V14.00,2013-02-23 11:15:00,
2013-02-23 06:20:00,67.9,67.0,29.97,SSE,155,0.0,0.0,97,0.00,,---,0.00,VWS V14.00,2013-02-23 11:20:00,
2013-02-23 06:25:00,67.9,67.0,29.97,SSE,155,0.0,0.0,97,0.00,,---,0.00,VWS V14.00,2013-02-23 11:25:00,
2013-02-23 06:30:00,68.0,67.1,29.97,SSE,155,0.0,5.0,97,0.00,,---,0.00,VWS V14.00,2013-02-23 11:30:00,
2013-02-23 06:35:00,68.2,67.3,29.97,SSE,155,0.0,0.0,97,0.00,,---,0.00,VWS V14.00,2013-02-23 11:35:00,
2013-02-23 06:40:00,68.2,67.3,29.97,SSE,155,0.0,0.0,97,0.00,,---,0.00,VWS V14.00,2013-02-23 11:40:00,
2013-02-23 06:45:00,68.2,67.3,29.97,SSE,155,0.0,0.0,97,0.00,,---,0.00,VWS V14.00,2013-02-23 11:45:00,
2013-02-23 06:50:00,68.2,67.3,29.97,SSE,155,0.0,0.0,97,0.00,,---,0.00,VWS V14.00,2013-02-23 11:50:00,
2013-02-23 06:55:00,68.1,67.2,29.97,SSE,155,0.0,0.0,97,0.00,,---,0.00,VWS V14.00,2013-02-23 11:55:00,
2013-02-23 07:00:00,68.1,67.2,29.97,SSE,155,0.0,0.0,97,0.00,,---,0.00,VWS V14.00,2013-02-23 12:00:00,
2013-02-23 07:05:00,68.0,67.1,29.97,SSE,155,0.0,0.0,97,0.00,,---,0.00,VWS V14.00,2013-02-23 12:05:00,
2013-02-23 07:10:00,67.9,67.0,29.97,SSE,155,0.0,0.0,97,0.00,,---,0.00,VWS V14.00,2013-02-23 12:10:00,
2013-02-23 07:15:00,67.9,67.0,29.97,SSE,155,0.0,1.0,97,0.00,,---,0.00,VWS V14.00,2013-02-23 12:15:00,
2013-02-23 07:20:00,67.8,66.9,29.97,SSE,155,0.0,0.0,97,0.00,,---,0.00,VWS V14.00,2013-02-23 12:20:00,
2013-02-23 07:25:00,67.8,66.9,29.97,SSE,155,0.0,0.0,97,0.00,,---,0.00,VWS V14.00,2013-02-23 12:25:00,
2013-02-23 07:30:00,67.8,66.9,29.97,SSE,155,0.0,0.0,97,0.00,,---,0.00,VWS V14.00,2013-02-23 12:30:00,
2013-02-23 07:35:00,67.8,66.9,29.97,SSE,155,0.0,0.0,97,0.00,,---,0.00,VWS V14.00,2013-02-23 12:35:00,
2013-02-23 07:40:00,67.8,66.9,29.97,SSE,155,0.0,0.0,97,0.00,,---,0.00,VWS V14.00,2013-02-23 12:40:00,
2013-02-23 07:45:00,67.9,67.3,29.97,SSE,155,0.0,0.0,98,0.00,,---,0.00,VWS V14.00,2013-02-23 12:45:00,
2013-02-23 07:50:00,68.0,67.4,29.97,SSE,155,0.0,0.0,98,0.00,,---,0.00,VWS V14.00,2013-02-23 12:50:00,
2013-02-23 07:55:00,68.1,67.5,29.97,SSE,155,0.0,5.0,98,0.00,,---,0.00,VWS V14.00,2013-02-23 12:55:00,
2013-02-23 08:00:00,68.2,67.6,29.98,SSE,155,0.0,0.0,98,0.00,,---,0.00,VWS V14.00,2013-02-23 13:00:00,
2013-02-23 08:05:00,68.4,67.8,29.98,SSE,155,0.0,0.0,98,0.00,,---,0.00,VWS V14.00,2013-02-23 13:05:00,
2013-02-23 08:10:00,68.6,68.0,29.98,SSE,155,0.0,0.0,98,0.00,,---,0.00,VWS V14.00,2013-02-23 13:10:00,
2013-02-23 08:15:00,68.9,68.3,29.98,SSE,153,4.0,5.0,98,0.00,,---,0.00,VWS V14.00,2013-02-23 13:15:00,
2013-02-23 08:20:00,69.2,68.6,29.98,SSE,152,0.0,0.0,98,0.00,,---,0.00,VWS V14.00,2013-02-23 13:20:00,
2013-02-23 08:25:00,69.8,69.2,29.99,SE,129,4.0,6.0,98,0.00,,---,0.00,VWS V14.00,2013-02-23 13:25:00,
2013-02-23 08:30:00,70.5,69.3,29.98,SSE,164,1.0,7.0,96,0.00,,---,0.00,VWS V14.00,2013-02-23 13:30:00,
2013-02-23 08:35:00,71.2,69.4,29.99,SSE,153,0.0,6.0,94,0.00,,---,0.00,VWS V14.00,2013-02-23 13:35:00,
2013-02-23 08:40:00,71.7,69.9,29.99,SE,130,0.0,7.0,94,0.00,,---,0.00,VWS V14.00,2013-02-23 13:40:00,
2013-02-23 08:45:00,72.5,70.1,29.99,ESE,123,6.0,7.0,92,0.00,,---,0.00,VWS V14.00,2013-02-23 13:45:00,
2013-02-23 08:50:00,73.5,70.7,29.99,SE,128,0.0,7.0,91,0.00,,---,0.00,VWS V14.00,2013-02-23 13:50:00,
2013-02-23 08:55:00,74.2,70.8,29.99,SSE,151,0.0,7.0,89,0.00,,---,0.00,VWS V14.00,2013-02-23 13:55:00,
2013-02-23 09:00:00,74.7,70.9,29.99,SE,131,5.0,9.0,88,0.00,,---,0.00,VWS V14.00,2013-02-23 14:00:00,
2013-02-23 09:05:00,75.4,71.3,30.00,South,169,0.0,9.0,87,0.00,,---,0.00,VWS V14.00,2013-02-23 14:05:00,
2013-02-23 09:10:00,76.0,71.2,30.00,SSE,150,4.0,10.0,85,0.00,,---,0.00,VWS V14.00,2013-02-23 14:10:00,
2013-02-23 09:15:00,76.6,71.4,30.00,SE,141,4.0,8.0,84,0.00,,---,0.00,VWS V14.00,2013-02-23 14:15:00,
2013-02-23 09:20:00,77.1,71.5,30.00,SSE,148,9.0,12.0,83,0.00,,---,0.00,VWS V14.00,2013-02-23 14:20:00,
2013-02-23 09:25:00,77.3,71.4,29.99,SE,124,5.0,11.0,82,0.00,,---,0.00,VWS V14.00,2013-02-23 14:25:00,
2013-02-23 09:30:00,77.4,71.5,29.99,SE,138,8.0,9.0,82,0.00,,---,0.00,VWS V14.00,2013-02-23 14:30:00,
2013-02-23 09:35:00,77.6,71.7,30.00,SE,124,8.0,10.0,82,0.00,,---,0.00,VWS V14.00,2013-02-23 14:35:00,
2013-02-23 09:40:00,77.9,71.6,29.99,SSE,157,5.0,13.0,81,0.00,,---,0.00,VWS V14.00,2013-02-23 14:40:00,
2013-02-23 09:45:00,78.5,72.2,30.00,SE,139,6.0,11.0,81,0.00,,---,0.00,VWS V14.00,2013-02-23 14:45:00,
2013-02-23 09:50:00,78.9,72.2,29.99,South,173,7.0,8.0,80,0.00,,---,0.00,VWS V14.00,2013-02-23 14:50:00,
2013-02-23 09:55:00,79.6,72.1,29.99,SSE,164,3.0,9.0,78,0.00,,---,0.00,VWS V14.00,2013-02-23 14:55:00,
2013-02-23 10:00:00,80.1,71.9,29.99,SE,142,14.0,14.0,76,0.00,,---,0.00,VWS V14.00,2013-02-23 15:00:00,
2013-02-23 10:05:00,80.1,71.9,29.99,SSE,165,1.0,14.0,76,0.00,,---,0.00,VWS V14.00,2013-02-23 15:05:00,
2013-02-23 10:10:00,79.9,71.3,29.99,SSE,161,6.0,10.0,75,0.00,,---,0.00,VWS V14.00,2013-02-23 15:10:00,
2013-02-23 10:15:00,79.7,71.9,29.99,SSE,159,6.0,8.0,77,0.00,,---,0.00,VWS V14.00,2013-02-23 15:15:00,
2013-02-23 10:20:00,80.4,71.4,29.99,SE,127,7.0,13.0,74,0.00,,---,0.00,VWS V14.00,2013-02-23 15:20:00,
2013-02-23 10:25:00,80.5,71.8,29.99,SE,132,2.0,14.0,75,0.00,,---,0.00,VWS V14.00,2013-02-23 15:25:00,
2013-02-23 10:30:00,81.0,72.7,29.98,SSE,163,8.0,9.0,76,0.00,,---,0.00,VWS V14.00,2013-02-23 15:30:00,
2013-02-23 10:35:00,81.9,71.6,29.99,SSW,196,11.0,11.0,71,0.00,,---,0.00,VWS V14.00,2013-02-23 15:35:00,
2013-02-23 10:40:00,81.7,71.4,29.98,SSW,200,6.0,9.0,71,0.00,,---,0.00,VWS V14.00,2013-02-23 15:40:00,
2013-02-23 10:45:00,81.9,71.6,29.99,SSE,166,8.0,10.0,71,0.00,,---,0.00,VWS V14.00,2013-02-23 15:45:00,
2013-02-23 10:50:00,81.8,71.1,29.98,SE,142,8.0,12.0,70,0.00,,---,0.00,VWS V14.00,2013-02-23 15:50:00,
2013-02-23 10:55:00,82.4,71.2,29.98,South,188,0.0,12.0,69,0.00,,---,0.00,VWS V14.00,2013-02-23 15:55:00,
2013-02-23 11:00:00,83.0,71.4,29.98,SSW,208,0.0,12.0,68,0.00,,---,0.00,VWS V14.00,2013-02-23 16:00:00,
2013-02-23 11:05:00,83.2,71.6,29.98,SSE,150,8.0,13.0,68,0.00,,---,0.00,VWS V14.00,2013-02-23 16:05:00,
2013-02-23 11:10:00,82.8,71.2,29.97,SE,129,10.0,13.0,68,0.00,,---,0.00,VWS V14.00,2013-02-23 16:10:00,
2013-02-23 11:15:00,83.0,70.9,29.98,SSW,213,1.0,12.0,67,0.00,,---,0.00,VWS V14.00,2013-02-23 16:15:00,
2013-02-23 11:20:00,82.9,70.8,29.98,South,188,8.0,14.0,67,0.00,,---,0.01,VWS V14.00,2013-02-23 16:20:00,
2013-02-23 11:25:00,82.8,70.7,29.98,South,186,6.0,14.0,67,0.00,,---,0.01,VWS V14.00,2013-02-23 16:25:00,
2013-02-23 11:30:00,82.7,70.6,29.98,South,171,0.0,9.0,67,0.00,,---,0.01,VWS V14.00,2013-02-23 16:30:00,
2013-02-23 11:35:00,83.5,70.5,29.98,SSW,204,5.0,11.0,65,0.00,,---,0.01,VWS V14.00,2013-02-23 16:35:00,
2013-02-23 11:40:00,83.4,69.9,29.97,SSW,194,0.0,11.0,64,0.00,,---,0.01,VWS V14.00,2013-02-23 16:40:00,
2013-02-23 11:45:00,83.1,70.6,29.97,SSE,168,4.0,12.0,66,0.00,,---,0.01,VWS V14.00,2013-02-23 16:45:00,
2013-02-23 11:50:00,83.3,69.9,29.97,SW,218,5.0,10.0,64,0.00,,---,0.01,VWS V14.00,2013-02-23 16:50:00,
2013-02-23 11:55:00,84.0,70.1,29.97,SW,218,0.0,7.0,63,0.00,,---,0.01,VWS V14.00,2013-02-23 16:55:00,
2013-02-23 12:00:00,84.6,69.7,29.97,South,178,5.0,9.0,61,0.00,,---,0.01,VWS V14.00,2013-02-23 17:00:00,
2013-02-23 12:05:00,84.7,70.7,29.96,SSE,161,7.0,9.0,63,0.00,,---,0.01,VWS V14.00,2013-02-23 17:05:00,
2013-02-23 12:10:00,85.2,70.2,29.96,SSW,207,0.0,11.0,61,0.00,,---,0.01,VWS V14.00,2013-02-23 17:10:00,
2013-02-23 12:15:00,85.7,70.2,29.96,South,170,0.0,10.0,60,0.00,,---,0.01,VWS V14.00,2013-02-23 17:15:00,
2013-02-23 12:20:00,85.4,69.4,29.96,SSE,148,0.0,12.0,59,0.00,,---,0.01,VWS V14.00,2013-02-23 17:20:00,
2013-02-23 12:25:00,85.0,69.6,29.96,SW,231,9.0,9.0,60,0.00,,---,0.01,VWS V14.00,2013-02-23 17:25:00,
2013-02-23 12:30:00,84.9,70.4,29.96,SSE,165,0.0,11.0,62,0.00,,---,0.01,VWS V14.00,2013-02-23 17:30:00,
2013-02-23 12:35:00,85.2,69.8,29.95,SE,137,5.0,9.0,60,0.00,,---,0.01,VWS V14.00,2013-02-23 17:35:00,
2013-02-23 12:40:00,84.5,69.1,29.94,WSW,245,8.0,12.0,60,0.00,,---,0.01,VWS V14.00,2013-02-23 17:40:00,
2013-02-23 12:45:00,85.0,70.1,29.94,SSW,213,0.0,13.0,61,0.00,,---,0.01,VWS V14.00,2013-02-23 17:45:00,
2013-02-23 12:50:00,85.3,69.8,29.94,SW,225,8.0,11.0,60,0.00,,---,0.01,VWS V14.00,2013-02-23 17:50:00,
2013-02-23 12:55:00,84.7,69.8,29.94,SW,216,0.0,14.0,61,0.00,,---,0.01,VWS V14.00,2013-02-23 17:55:00,
2013-02-23 13:00:00,85.4,69.9,29.94,SW,229,4.0,14.0,60,0.00,,---,0.01,VWS V14.00,2013-02-23 18:00:00,
2013-02-23 13:05:00,86.1,69.6,29.93,SW,224,12.0,13.0,58,0.00,,---,0.01,VWS V14.00,2013-02-23 18:05:00,
2013-02-23 13:10:00,85.4,68.4,29.93,SW,214,6.0,13.0,57,0.00,,---,0.01,VWS V14.00,2013-02-23 18:10:00,
2013-02-23 13:15:00,84.7,68.8,29.93,SSW,205,0.0,9.0,59,0.00,,---,0.01,VWS V14.00,2013-02-23 18:15:00,
2013-02-23 13:20:00,85.6,69.1,29.93,SW,223,9.0,15.0,58,0.00,,---,0.01,VWS V14.00,2013-02-23 18:20:00,
2013-02-23 13:25:00,86.4,69.4,29.92,SW,229,7.0,10.0,57,0.00,,---,0.01,VWS V14.00,2013-02-23 18:25:00,
2013-02-23 13:30:00,86.8,68.7,29.92,SW,219,11.0,19.0,55,0.00,,---,0.01,VWS V14.00,2013-02-23 18:30:00,
2013-02-23 13:35:00,86.7,69.1,29.92,SW,232,7.0,11.0,56,0.00,,---,0.01,VWS V14.00,2013-02-23 18:35:00,
2013-02-23 13:40:00,86.4,68.3,29.92,SSE,148,9.0,18.0,55,0.00,,---,0.01,VWS V14.00,2013-02-23 18:40:00,
2013-02-23 13:45:00,85.9,68.9,29.91,SSW,205,13.0,13.0,57,0.00,,---,0.01,VWS V14.00,2013-02-23 18:45:00,
2013-02-23 13:50:00,86.7,69.1,29.91,South,183,0.0,11.0,56,0.00,,---,0.01,VWS V14.00,2013-02-23 18:50:00,
2013-02-23 13:55:00,86.8,69.2,29.92,South,179,0.0,9.0,56,0.00,,---,0.01,VWS V14.00,2013-02-23 18:55:00,
2013-02-23 14:00:00,86.6,69.6,29.91,South,173,0.0,13.0,57,0.00,,---,0.01,VWS V14.00,2013-02-23 19:00:00,
2013-02-23 14:05:00,86.0,68.5,29.91,SSE,158,0.0,13.0,56,0.00,,---,0.01,VWS V14.00,2013-02-23 19:05:00,
2013-02-23 14:10:00,86.0,68.5,29.91,SW,217,7.0,14.0,56,0.00,,---,0.01,VWS V14.00,2013-02-23 19:10:00,
2013-02-23 14:15:00,85.7,68.2,29.91,SSE,166,6.0,15.0,56,0.00,,---,0.01,VWS V14.00,2013-02-23 19:15:00,
2013-02-23 14:20:00,85.9,69.4,29.91,South,173,1.0,12.0,58,0.00,,---,0.01,VWS V14.00,2013-02-23 19:20:00,
2013-02-23 14:25:00,86.7,70.2,29.90,SSW,194,6.0,16.0,58,0.00,,---,0.01,VWS V14.00,2013-02-23 19:25:00,
2013-02-23 14:30:00,86.4,69.4,29.91,SSW,212,5.0,11.0,57,0.00,,---,0.01,VWS V14.00,2013-02-23 19:30:00,
2013-02-23 14:35:00,86.5,70.0,29.90,SSE,162,0.0,11.0,58,0.00,,---,0.01,VWS V14.00,2013-02-23 19:35:00,
2013-02-23 14:40:00,87.6,70.5,29.90,SSE,158,11.0,11.0,57,0.00,,---,0.01,VWS V14.00,2013-02-23 19:40:00,
2013-02-23 14:45:00,87.6,68.4,29.90,South,184,7.0,15.0,53,0.00,,---,0.01,VWS V14.00,2013-02-23 19:45:00,
2013-02-23 14:50:00,86.3,68.2,29.90,SSW,205,1.0,12.0,55,0.00,,---,0.01,VWS V14.00,2013-02-23 19:50:00,
2013-02-23 14:55:00,86.1,69.6,29.90,South,173,0.0,8.0,58,0.00,,---,0.01,VWS V14.00,2013-02-23 19:55:00,
2013-02-23 15:00:00,86.5,69.0,29.90,South,185,4.0,16.0,56,0.00,,---,0.01,VWS V14.00,2013-02-23 20:00:00,
2013-02-23 15:05:00,86.4,69.9,29.90,South,188,0.0,13.0,58,0.00,,---,0.01,VWS V14.00,2013-02-23 20:05:00,
2013-02-23 15:10:00,86.5,69.5,29.90,SE,146,8.0,10.0,57,0.00,,---,0.01,VWS V14.00,2013-02-23 20:10:00,
2013-02-23 15:15:00,86.9,69.8,29.90,SSE,154,1.0,13.0,57,0.00,,---,0.01,VWS V14.00,2013-02-23 20:15:00,
2013-02-23 15:20:00,86.8,69.2,29.90,SSW,202,9.0,20.0,56,0.00,,---,0.01,VWS V14.00,2013-02-23 20:20:00,
2013-02-23 15:25:00,86.2,69.7,29.90,SSW,199,0.0,14.0,58,0.00,,---,0.01,VWS V14.00,2013-02-23 20:25:00,
2013-02-23 15:30:00,86.5,69.0,29.90,South,186,7.0,12.0,56,0.00,,---,0.01,VWS V14.00,2013-02-23 20:30:00,
2013-02-23 15:35:00,87.0,69.4,29.90,SSW,200,7.0,12.0,56,0.00,,---,0.01,VWS V14.00,2013-02-23 20:35:00,
2013-02-23 15:40:00,87.3,70.2,29.90,SSW,194,4.0,9.0,57,0.00,,---,0.01,VWS V14.00,2013-02-23 20:40:00,
2013-02-23 15:45:00,86.8,68.7,29.90,SW,235,8.0,14.0,55,0.00,,---,0.01,VWS V14.00,2013-02-23 20:45:00,
2013-02-23 15:50:00,85.9,68.9,29.90,SW,233,8.0,13.0,57,0.00,,---,0.01,VWS V14.00,2013-02-23 20:50:00,
2013-02-23 15:55:00,85.3,69.4,29.90,SW,233,9.0,16.0,59,0.00,,---,0.01,VWS V14.00,2013-02-23 20:55:00,
2013-02-23 16:00:00,85.4,69.9,29.90,SW,231,5.0,13.0,60,0.00,,---,0.01,VWS V14.00,2013-02-23 21:00:00,
2013-02-23 16:05:00,85.5,69.6,29.90,SW,221,6.0,13.0,59,0.00,,---,0.01,VWS V14.00,2013-02-23 21:05:00,
2013-02-23 16:10:00,85.0,69.6,29.90,SW,236,15.0,15.0,60,0.00,,---,0.01,VWS V14.00,2013-02-23 21:10:00,
2013-02-23 16:15:00,83.6,69.7,29.90,SSW,213,0.0,13.0,63,0.00,,---,0.01,VWS V14.00,2013-02-23 21:15:00,
2013-02-23 16:20:00,83.1,69.7,29.90,SSW,195,7.0,12.0,64,0.00,,---,0.01,VWS V14.00,2013-02-23 21:20:00,
2013-02-23 16:25:00,83.8,70.3,29.89,WSW,238,2.0,12.0,64,0.00,,---,0.01,VWS V14.00,2013-02-23 21:25:00,
2013-02-23 16:30:00,84.3,69.4,29.89,WSW,238,7.0,16.0,61,0.00,,---,0.01,VWS V14.00,2013-02-23 21:30:00,
2013-02-23 16:35:00,84.3,69.4,29.89,SSW,193,7.0,13.0,61,0.00,,---,0.01,VWS V14.00,2013-02-23 21:35:00,
2013-02-23 16:40:00,83.8,69.4,29.89,SSE,150,1.0,13.0,62,0.00,,---,0.01,VWS V14.00,2013-02-23 21:40:00,
2013-02-23 16:45:00,83.6,70.1,29.89,SW,222,4.0,11.0,64,0.00,,---,0.01,VWS V14.00,2013-02-23 21:45:00,
2013-02-23 16:50:00,83.5,70.5,29.90,SW,219,0.0,12.0,65,0.00,,---,0.01,VWS V14.00,2013-02-23 21:50:00,
2013-02-23 16:55:00,83.3,70.3,29.89,SSW,210,3.0,13.0,65,0.00,,---,0.01,VWS V14.00,2013-02-23 21:55:00,
2013-02-23 17:00:00,83.0,69.1,29.89,SSW,195,8.0,12.0,63,0.00,,---,0.01,VWS V14.00,2013-02-23 22:00:00,
2013-02-23 17:05:00,82.3,68.9,29.89,SSW,213,5.0,12.0,64,0.00,,---,0.01,VWS V14.00,2013-02-23 22:05:00,
2013-02-23 17:10:00,81.6,69.2,29.89,SW,233,6.0,13.0,66,0.00,,---,0.01,VWS V14.00,2013-02-23 22:10:00,
2013-02-23 17:15:00,81.3,69.3,29.89,SSW,211,5.0,12.0,67,0.00,,---,0.01,VWS V14.00,2013-02-23 22:15:00,
2013-02-23 17:20:00,81.2,69.2,29.89,SSW,202,6.0,11.0,67,0.00,,---,0.01,VWS V14.00,2013-02-23 22:20:00,
2013-02-23 17:25:00,81.2,69.6,29.89,SSW,195,4.0,12.0,68,0.00,,---,0.01,VWS V14.00,2013-02-23 22:25:00,
2013-02-23 17:30:00,81.1,70.0,29.89,SW,223,6.0,11.0,69,0.00,,---,0.01,VWS V14.00,2013-02-23 22:30:00,
2013-02-23 17:35:00,81.0,69.9,29.89,SW,218,1.0,10.0,69,0.00,,---,0.01,VWS V14.00,2013-02-23 22:35:00,
2013-02-23 17:40:00,80.8,70.1,29.89,SW,220,6.0,10.0,70,0.00,,---,0.01,VWS V14.00,2013-02-23 22:40:00,
2013-02-23 17:45:00,80.4,70.1,29.89,SW,219,6.0,12.0,71,0.00,,---,0.01,VWS V14.00,2013-02-23 22:45:00,
2013-02-23 17:50:00,80.1,70.3,29.89,SW,215,0.0,9.0,72,0.00,,---,0.01,VWS V14.00,2013-02-23 22:50:00,
2013-02-23 17:55:00,79.9,70.5,29.90,SW,220,4.0,8.0,73,0.00,,---,0.01,VWS V14.00,2013-02-23 22:55:00,
2013-02-23 18:00:00,79.5,70.5,29.90,SSW,208,0.0,9.0,74,0.00,,---,0.01,VWS V14.00,2013-02-23 23:00:00,
2013-02-23 18:05:00,79.3,70.7,29.90,SW,220,0.0,5.0,75,0.00,,---,0.01,VWS V14.00,2013-02-23 23:05:00,
2013-02-23 18:10:00,79.0,70.4,29.90,SW,226,8.0,9.0,75,0.00,,---,0.01,VWS V14.00,2013-02-23 23:10:00,
2013-02-23 18:15:00,78.5,70.3,29.90,SW,224,2.0,10.0,76,0.00,,---,0.01,VWS V14.00,2013-02-23 23:15:00,
2013-02-23 18:20:00,78.2,70.4,29.90,SW,223,0.0,6.0,77,0.00,,---,0.01,VWS V14.00,2013-02-23 23:20:00,
2013-02-23 18:25:00,77.9,70.5,29.91,SW,215,0.0,9.0,78,0.00,,---,0.01,VWS V14.00,2013-02-23 23:25:00,
2013-02-23 18:30:00,77.6,70.6,29.91,SW,223,6.0,8.0,79,0.00,,---,0.01,VWS V14.00,2013-02-23 23:30:00,
2013-02-23 18:35:00,77.3,70.3,29.91,SSW,209,6.0,8.0,79,0.00,,---,0.01,VWS V14.00,2013-02-23 23:35:00,
2013-02-23 18:40:00,77.0,70.4,29.91,SW,215,4.0,7.0,80,0.00,,---,0.01,VWS V14.00,2013-02-23 23:40:00,
2013-02-23 18:45:00,76.7,70.4,29.91,SSW,213,1.0,4.0,81,0.00,,---,0.01,VWS V14.00,2013-02-23 23:45:00,
2013-02-23 18:50:00,76.5,70.6,29.91,SW,217,0.0,8.0,82,0.00,,---,0.01,VWS V14.00,2013-02-23 23:50:00,
2013-02-23 18:55:00,76.2,70.3,29.91,SW,219,8.0,8.0,82,0.00,,---,0.01,VWS V14.00,2013-02-23 23:55:00,
2013-02-23 19:00:00,76.0,70.5,29.91,SW,218,4.0,7.0,83,0.00,,---,0.01,VWS V14.00,2013-02-24 00:00:00,
2013-02-23 19:05:00,75.8,70.3,29.91,SW,218,0.0,6.0,83,0.00,,---,0.01,VWS V14.00,2013-02-24 00:05:00,
2013-02-23 19:10:00,75.7,70.5,29.91,SW,216,0.0,8.0,84,0.00,,---,0.01,VWS V14.00,2013-02-24 00:10:00,
2013-02-23 19:15:00,75.5,70.3,29.92,SW,217,3.0,8.0,84,0.00,,---,0.01,VWS V14.00,2013-02-24 00:15:00,
2013-02-23 19:20:00,75.2,70.4,29.92,SW,217,1.0,6.0,85,0.00,,---,0.01,VWS V14.00,2013-02-24 00:20:00,
2013-02-23 19:25:00,75.0,70.2,29.92,SW,217,1.0,6.0,85,0.00,,---,0.01,VWS V14.00,2013-02-24 00:25:00,
2013-02-23 19:30:00,74.8,70.3,29.92,SW,218,2.0,4.0,86,0.00,,---,0.01,VWS V14.00,2013-02-24 00:30:00,
2013-02-23 19:35:00,74.7,70.2,29.92,SW,218,0.0,4.0,86,0.00,,---,0.01,VWS V14.00,2013-02-24 00:35:00,
2013-02-23 19:40:00,74.5,70.0,29.92,SW,218,0.0,6.0,86,0.00,,---,0.01,VWS V14.00,2013-02-24 00:40:00,
2013-02-23 19:45:00,74.3,70.2,29.93,SW,218,1.0,7.0,87,0.00,,---,0.01,VWS V14.00,2013-02-24 00:45:00,
2013-02-23 19:50:00,74.2,70.1,29.92,SW,219,3.0,7.0,87,0.00,,---,0.01,VWS V14.00,2013-02-24 00:50:00,
2013-02-23 19:55:00,74.1,70.3,29.92,SW,219,0.0,5.0,88,0.00,,---,0.01,VWS V14.00,2013-02-24 00:55:00,
2013-02-23 20:00:00,74.0,70.2,29.93,SW,219,0.0,5.0,88,0.00,,---,0.01,VWS V14.00,2013-02-24 01:00:00,
2013-02-23 20:05:00,73.9,70.1,29.93,SW,219,0.0,5.0,88,0.00,,---,0.01,VWS V14.00,2013-02-24 01:05:00,
2013-02-23 20:10:00,73.7,69.9,29.93,SW,219,0.0,0.0,88,0.00,,---,0.01,VWS V14.00,2013-02-24 01:10:00,
2013-02-23 20:15:00,73.5,70.1,29.93,SW,219,0.0,0.0,89,0.00,,---,0.01,VWS V14.00,2013-02-24 01:15:00,
2013-02-23 20:20:00,73.3,69.9,29.93,SW,219,0.0,0.0,89,0.00,,---,0.01,VWS V14.00,2013-02-24 01:20:00,
2013-02-23 20:25:00,73.2,69.8,29.93,SW,219,0.0,0.0,89,0.00,,---,0.01,VWS V14.00,2013-02-24 01:25:00,
2013-02-23 20:30:00,73.0,69.6,29.94,SW,219,0.0,0.0,89,0.00,,---,0.01,VWS V14.00,2013-02-24 01:30:00,
2013-02-23 20:35:00,72.8,69.7,29.94,SW,219,0.0,0.0,90,0.00,,---,0.01,VWS V14.00,2013-02-24 01:35:00,
2013-02-23 20:40:00,72.6,69.5,29.94,SW,219,0.0,0.0,90,0.00,,---,0.01,VWS V14.00,2013-02-24 01:40:00,
2013-02-23 20:45:00,72.5,69.4,29.94,SW,219,0.0,0.0,90,0.00,,---,0.01,VWS V14.00,2013-02-24 01:45:00,
2013-02-23 20:50:00,72.3,69.5,29.94,SW,219,0.0,0.0,91,0.00,,---,0.01,VWS V14.00,2013-02-24 01:50:00,
2013-02-23 20:55:00,72.2,69.4,29.94,SW,219,0.0,0.0,91,0.00,,---,0.01,VWS V14.00,2013-02-24 01:55:00,
2013-02-23 21:00:00,72.0,69.2,29.94,SW,219,0.0,0.0,91,0.00,,---,0.01,VWS V14.00,2013-02-24 02:00:00,
2013-02-23 21:05:00,71.8,69.0,29.94,SW,219,0.0,0.0,91,0.00,,---,0.01,VWS V14.00,2013-02-24 02:05:00,
2013-02-23 21:10:00,71.7,69.3,29.94,SW,219,0.0,0.0,92,0.00,,---,0.01,VWS V14.00,2013-02-24 02:10:00,
2013-02-23 21:15:00,71.6,69.5,29.94,SW,219,0.0,0.0,93,0.00,,---,0.01,VWS V14.00,2013-02-24 02:15:00,
2013-02-23 21:20:00,71.5,69.4,29.94,SW,219,0.0,0.0,93,0.00,,---,0.01,VWS V14.00,2013-02-24 02:20:00,
2013-02-23 21:25:00,71.4,69.3,29.94,SW,219,0.0,0.0,93,0.00,,---,0.01,VWS V14.00,2013-02-24 02:25:00,
2013-02-23 21:30:00,71.3,69.2,29.94,SW,219,0.0,0.0,93,0.00,,---,0.01,VWS V14.00,2013-02-24 02:30:00,
2013-02-23 21:35:00,71.2,69.1,29.94,SW,219,0.0,0.0,93,0.00,,---,0.01,VWS V14.00,2013-02-24 02:35:00,
2013-02-23 21:40:00,71.1,69.0,29.94,SW,219,0.0,0.0,93,0.00,,---,0.01,VWS V14.00,2013-02-24 02:40:00,
2013-02-23 21:45:00,71.0,69.2,29.94,SW,219,0.0,0.0,94,0.00,,---,0.01,VWS V14.00,2013-02-24 02:45:00,
2013-02-23 21:50:00,70.9,69.1,29.94,SW,219,0.0,0.0,94,0.00,,---,0.01,VWS V14.00,2013-02-24 02:50:00,
2013-02-23 21:55:00,70.8,69.0,29.94,SW,219,0.0,0.0,94,0.00,,---,0.01,VWS V14.00,2013-02-24 02:55:00,
2013-02-23 22:00:00,70.6,68.8,29.94,SW,219,0.0,0.0,94,0.00,,---,0.01,VWS V14.00,2013-02-24 03:00:00,
2013-02-23 22:05:00,70.5,68.7,29.95,SW,219,0.0,0.0,94,0.00,,---,0.01,VWS V14.00,2013-02-24 03:05:00,
2013-02-23 22:10:00,70.3,68.5,29.94,SW,219,0.0,0.0,94,0.00,,---,0.01,VWS V14.00,2013-02-24 03:10:00,
2013-02-23 22:15:00,70.2,68.4,29.95,SW,219,0.0,0.0,94,0.00,,---,0.01,VWS V14.00,2013-02-24 03:15:00,
2013-02-23 22:20:00,70.1,68.6,29.94,SW,219,0.0,0.0,95,0.00,,---,0.01,VWS V14.00,2013-02-24 03:20:00,
2013-02-23 22:25:00,69.9,68.1,29.95,SW,219,0.0,0.0,94,0.00,,---,0.01,VWS V14.00,2013-02-24 03:25:00,
2013-02-23 22:30:00,69.8,68.3,29.95,SW,219,0.0,0.0,95,0.00,,---,0.01,VWS V14.00,2013-02-24 03:30:00,
2013-02-23 22:35:00,69.7,68.2,29.95,SW,219,0.0,0.0,95,0.00,,---,0.01,VWS V14.00,2013-02-24 03:35:00,
2013-02-23 22:40:00,69.6,68.1,29.95,SW,219,0.0,0.0,95,0.00,,---,0.01,VWS V14.00,2013-02-24 03:40:00,
2013-02-23 22:45:00,69.5,68.0,29.95,SW,219,0.0,0.0,95,0.00,,---,0.01,VWS V14.00,2013-02-24 03:45:00,
2013-02-23 22:50:00,69.5,68.0,29.95,SW,219,0.0,0.0,95,0.00,,---,0.01,VWS V14.00,2013-02-24 03:50:00,
2013-02-23 22:55:00,69.4,68.2,29.95,SW,219,0.0,0.0,96,0.00,,---,0.01,VWS V14.00,2013-02-24 03:55:00,
2013-02-23 23:00:00,69.4,68.2,29.95,SW,219,0.0,0.0,96,0.00,,---,0.01,VWS V14.00,2013-02-24 04:00:00,
2013-02-23 23:05:00,69.4,68.2,29.95,SW,219,0.0,0.0,96,0.00,,---,0.01,VWS V14.00,2013-02-24 04:05:00,
2013-02-23 23:10:00,69.4,68.2,29.95,SW,219,0.0,0.0,96,0.00,,---,0.01,VWS V14.00,2013-02-24 04:10:00,
2013-02-23 23:15:00,69.4,68.2,29.95,SW,219,0.0,0.0,96,0.00,,---,0.01,VWS V14.00,2013-02-24 04:15:00,
2013-02-23 23:20:00,69.5,68.3,29.95,SW,219,0.0,0.0,96,0.00,,---,0.01,VWS V14.00,2013-02-24 04:20:00,
2013-02-23 23:25:00,69.6,68.4,29.95,SW,219,0.0,0.0,96,0.00,,---,0.01,VWS V14.00,2013-02-24 04:25:00,
2013-02-23 23:30:00,69.7,68.8,29.95,SW,219,0.0,0.0,97,0.00,,---,0.01,VWS V14.00,2013-02-24 04:30:00,
2013-02-23 23:35:00,69.8,68.9,29.95,SW,219,2.0,2.0,97,0.00,,---,0.01,VWS V14.00,2013-02-24 04:35:00,
2013-02-23 23:40:00,69.8,68.9,29.95,SW,219,0.0,2.0,97,0.00,,---,0.01,VWS V14.00,2013-02-24 04:40:00,
2013-02-23 23:45:00,69.8,68.9,29.94,SW,219,0.0,0.0,97,0.00,,---,0.01,VWS V14.00,2013-02-24 04:45:00,
2013-02-23 23:50:00,69.9,69.0,29.95,SW,219,0.0,0.0,97,0.00,,---,0.01,VWS V14.00,2013-02-24 04:50:00,
2013-02-23 23:55:00,70.0,69.1,29.95,SW,219,0.0,5.0,97,0.00,,---,0.01,VWS V14.00,2013-02-24 04:55:00,